Time,TemperatureF,DewpointF,PressureIn,WindDirection,WindDirectionDegrees,WindSpeedMPH,WindSpeedGustMPH,Humidity,HourlyPrecipIn,Conditions,Clouds,dailyrainin,SolarRadiationWatts/m^2,SoftwareType,DateUTC
2013-05-28 00:07:00,38.4,35.4,30.17,WNW,292,0.0,0.0,89,0.00,CLR,FEW,0.00,0.0,WeatherDisplay:10.37,2013-05-28 04:07:00,
2013-05-28 00:17:00,38.0,35.3,30.17,WNW,292,0.0,0.0,90,0.00,CLR,FEW,0.00,0.0,WeatherDisplay:10.37,2013-05-28 04:17:00,
2013-05-28 00:22:00,37.8,35.4,30.16,WNW,292,0.0,1.0,91,0.00,CLR,FEW,0.00,0.0,WeatherDisplay:10.37,2013-05-28 04:22:00,
2013-05-28 00:27:00,37.5,35.1,30.17,WNW,292,0.0,1.0,91,0.00,CLR,FEW,0.00,0.0,WeatherDisplay:10.37,2013-05-28 04:27:00,
2013-05-28 00:32:00,37.3,34.9,30.17,WNW,292,0.0,0.0,91,0.00,CLR,FEW,0.00,0.0,WeatherDisplay:10.37,2013-05-28 04:32:00,
2013-05-28 00:37:00,37.1,34.7,30.17,WNW,292,0.0,0.0,91,0.00,CLR,FEW,0.00,0.0,WeatherDisplay:10.37,2013-05-28 04:37:00,
2013-05-28 00:42:00,37.0,34.6,30.17,WNW,292,0.0,0.0,91,0.00,CLR,FEW,0.00,0.0,WeatherDisplay:10.37,2013-05-28 04:42:00,
2013-05-28 00:47:00,36.9,34.8,30.17,WNW,292,0.0,0.0,92,0.00,CLR,FEW,0.00,0.0,WeatherDisplay:10.37,2013-05-28 04:47:00,
2013-05-28 00:52:00,36.8,34.7,30.17,WNW,292,0.0,0.0,92,0.00,CLR,FEW,0.00,0.0,WeatherDisplay:10.37,2013-05-28 04:52:00,
2013-05-28 00:57:00,36.7,34.6,30.17,WNW,292,0.0,0.0,92,0.00,CLR,FEW,0.00,0.0,WeatherDisplay:10.37,2013-05-28 04:57:00,
2013-05-28 01:07:00,36.3,34.5,30.18,WNW,292,0.0,0.0,93,0.00,CLR,FEW,0.00,0.0,WeatherDisplay:10.37,2013-05-28 05:07:00,
2013-05-28 01:17:00,36.1,34.3,30.17,WNW,292,0.0,1.0,93,0.00,CLR,FEW,0.00,0.0,WeatherDisplay:10.37,2013-05-28 05:17:00,
2013-05-28 01:22:00,36.0,34.2,30.17,WNW,292,0.0,0.0,93,0.00,CLR,FEW,0.00,0.0,WeatherDisplay:10.37,2013-05-28 05:22:00,
2013-05-28 01:27:00,35.9,34.1,30.17,WNW,292,0.0,0.0,93,0.00,CLR,FEW,0.00,0.0,WeatherDisplay:10.37,2013-05-28 05:27:00,
2013-05-28 01:32:00,35.9,34.3,30.17,WNW,292,0.0,0.0,94,0.00,CLR,FEW,0.00,0.0,WeatherDisplay:10.37,2013-05-28 05:32:00,
2013-05-28 01:37:00,35.9,34.3,30.17,WNW,292,0.0,0.0,94,0.00,CLR,FEW,0.00,0.0,WeatherDisplay:10.37,2013-05-28 05:37:00,
2013-05-28 01:42:00,35.8,34.0,30.17,WNW,292,0.0,0.0,93,0.00,CLR,FEW,0.00,0.0,WeatherDisplay:10.37,2013-05-28 05:42:00,
2013-05-28 01:47:00,35.6,33.8,30.18,WNW,292,0.0,0.0,93,0.00,CLR,FEW,0.00,0.0,WeatherDisplay:10.37,2013-05-28 05:47:00,
2013-05-28 01:52:00,35.5,33.9,30.17,WNW,292,0.0,0.0,94,0.00,CLR,FEW,0.00,0.0,WeatherDisplay:10.37,2013-05-28 05:52:00,
2013-05-28 01:57:00,35.5,33.9,30.18,WNW,292,0.0,0.0,94,0.00,CLR,FEW,0.00,0.0,WeatherDisplay:10.37,2013-05-28 05:57:00,
2013-05-28 02:07:00,35.4,33.9,30.18,WNW,292,0.0,0.0,94,0.00,CLR,FEW,0.00,0.0,WeatherDisplay:10.37,2013-05-28 06:07:00,
2013-05-28 02:17:00,35.3,33.7,30.18,WNW,292,0.0,0.0,94,0.00,CLR,FEW,0.00,0.0,WeatherDisplay:10.37,2013-05-28 06:17:00,
2013-05-28 02:22:00,35.2,33.6,30.18,WNW,292,0.0,0.0,94,0.00,CLR,FEW,0.00,0.0,WeatherDisplay:10.37,2013-05-28 06:22:00,
2013-05-28 02:27:00,35.1,33.6,30.17,WNW,292,0.0,0.0,94,0.00,CLR,FEW,0.00,0.0,WeatherDisplay:10.37,2013-05-28 06:27:00,
2013-05-28 02:32:00,35.1,33.5,30.18,WNW,292,0.0,1.0,94,0.00,CLR,FEW,0.00,0.0,WeatherDisplay:10.37,2013-05-28 06:32:00,
2013-05-28 02:37:00,35.1,33.5,30.17,WNW,292,0.0,0.0,94,0.00,CLR,FEW,0.00,0.0,WeatherDisplay:10.37,2013-05-28 06:37:00,
2013-05-28 02:42:00,35.0,33.7,30.17,WNW,292,0.0,0.0,95,0.00,CLR,FEW,0.00,0.0,WeatherDisplay:10.37,2013-05-28 06:42:00,
2013-05-28 02:47:00,34.9,33.6,30.18,WNW,292,0.0,0.0,95,0.00,CLR,FEW,0.00,0.0,WeatherDisplay:10.37,2013-05-28 06:47:00,
2013-05-28 02:52:00,34.9,33.6,30.17,WNW,292,0.0,0.0,95,0.00,CLR,FEW,0.00,0.0,WeatherDisplay:10.37,2013-05-28 06:52:00,
2013-05-28 02:57:00,34.8,33.5,30.17,WNW,292,0.0,0.0,95,0.00,CLR,FEW,0.00,0.0,WeatherDisplay:10.37,2013-05-28 06:57:00,
2013-05-28 03:07:00,34.6,33.3,30.17,WNW,292,0.0,1.0,95,0.00,CLR,FEW,0.00,0.0,WeatherDisplay:10.37,2013-05-28 07:07:00,
2013-05-28 03:17:00,34.6,33.3,30.17,WNW,292,0.0,0.0,95,0.00,CLR,FEW,0.00,0.0,WeatherDisplay:10.37,2013-05-28 07:17:00,
2013-05-28 03:22:00,34.6,33.3,30.17,WNW,292,0.0,0.0,95,0.00,CLR,FEW,0.00,0.0,WeatherDisplay:10.37,2013-05-28 07:22:00,
2013-05-28 03:27:00,34.5,33.2,30.17,WNW,292,0.0,0.0,95,0.00,CLR,FEW,0.00,0.0,WeatherDisplay:10.37,2013-05-28 07:27:00,
2013-05-28 03:32:00,34.5,33.2,30.18,WNW,292,0.0,0.0,95,0.00,CLR,FEW,0.00,0.0,WeatherDisplay:10.37,2013-05-28 07:32:00,
2013-05-28 03:37:00,34.4,33.1,30.18,WNW,292,0.0,0.0,95,0.00,CLR,FEW,0.00,0.0,WeatherDisplay:10.37,2013-05-28 07:37:00,
2013-05-28 03:42:00,34.4,33.1,30.18,WNW,292,0.0,0.0,95,0.00,CLR,FEW,0.00,0.0,WeatherDisplay:10.37,2013-05-28 07:42:00,
2013-05-28 03:47:00,34.4,33.2,30.18,WNW,292,0.0,0.0,95,0.00,CLR,FEW,0.00,0.0,WeatherDisplay:10.37,2013-05-28 07:47:00,
2013-05-28 03:52:00,34.5,33.2,30.18,WNW,292,0.0,0.0,95,0.00,CLR,FEW,0.00,0.0,WeatherDisplay:10.37,2013-05-28 07:52:00,
2013-05-28 03:57:00,34.4,33.1,30.18,WNW,292,0.0,0.0,95,0.00,CLR,FEW,0.00,0.0,WeatherDisplay:10.37,2013-05-28 07:57:00,
2013-05-28 04:07:00,34.4,33.1,30.18,WNW,292,0.0,0.0,95,0.00,FEW,FEW,0.00,0.0,WeatherDisplay:10.37,2013-05-28 08:07:00,
2013-05-28 04:17:00,34.2,32.9,30.18,WNW,292,0.0,0.0,95,0.00,BKN,FEW,0.00,0.0,WeatherDisplay:10.37,2013-05-28 08:17:00,
2013-05-28 04:22:00,34.1,32.8,30.18,WNW,292,0.0,0.0,95,0.00,BKN,FEW,0.00,0.0,WeatherDisplay:10.37,2013-05-28 08:22:00,
2013-05-28 04:27:00,34.1,32.8,30.18,WNW,292,0.0,0.0,95,0.00,BKN,FEW,0.00,0.0,WeatherDisplay:10.37,2013-05-28 08:27:00,
2013-05-28 04:32:00,34.1,32.8,30.18,WNW,292,0.0,0.0,95,0.00,BKN,FEW,0.00,0.0,WeatherDisplay:10.37,2013-05-28 08:32:00,
2013-05-28 04:37:00,34.0,32.7,30.19,WNW,292,0.0,0.0,95,0.00,BKN,FEW,0.00,0.0,WeatherDisplay:10.37,2013-05-28 08:37:00,
2013-05-28 04:42:00,34.0,33.0,30.19,WNW,292,0.0,0.0,96,0.00,BKN,FEW,0.00,0.0,WeatherDisplay:10.37,2013-05-28 08:42:00,
2013-05-28 04:47:00,34.0,33.0,30.19,WNW,292,0.0,1.0,96,0.00,SCT,FEW,0.00,0.0,WeatherDisplay:10.37,2013-05-28 08:47:00,
2013-05-28 04:52:00,34.0,33.0,30.19,WNW,292,0.0,0.0,96,0.00,SCT,FEW,0.00,0.0,WeatherDisplay:10.37,2013-05-28 08:52:00,
2013-05-28 04:57:00,34.0,33.0,30.19,WNW,292,0.0,0.0,96,0.00,SCT,FEW,0.00,0.0,WeatherDisplay:10.37,2013-05-28 08:57:00,
2013-05-28 05:07:00,34.0,33.0,30.19,WNW,292,0.0,0.0,96,0.00,FEW,FEW,0.00,5.0,WeatherDisplay:10.37,2013-05-28 09:07:00,
2013-05-28 05:17:00,34.0,33.0,30.19,WNW,292,0.0,0.0,96,0.00,FEW,FEW,0.00,9.0,WeatherDisplay:10.37,2013-05-28 09:17:00,
2013-05-28 05:22:00,34.0,33.0,30.20,WNW,292,0.0,0.0,96,0.00,FEW,FEW,0.00,11.0,WeatherDisplay:10.37,2013-05-28 09:22:00,
2013-05-28 05:27:00,33.9,32.9,30.20,WNW,292,0.0,0.0,96,0.00,FEW,FEW,0.00,14.0,WeatherDisplay:10.37,2013-05-28 09:27:00,
2013-05-28 05:32:00,33.9,32.9,30.20,WNW,292,0.0,0.0,96,0.00,FEW,FEW,0.00,16.0,WeatherDisplay:10.37,2013-05-28 09:32:00,
2013-05-28 05:37:00,33.9,32.9,30.20,WNW,292,0.0,0.0,96,0.00,FEW,FEW,0.00,18.0,WeatherDisplay:10.37,2013-05-28 09:37:00,
2013-05-28 05:42:00,33.8,32.8,30.20,WNW,292,0.0,0.0,96,0.00,FEW,FEW,0.00,21.0,WeatherDisplay:10.37,2013-05-28 09:42:00,
2013-05-28 05:47:00,33.8,32.8,30.20,WNW,292,0.0,0.0,96,0.00,FEW,FEW,0.00,23.0,WeatherDisplay:10.37,2013-05-28 09:47:00,
2013-05-28 05:52:00,33.9,32.9,30.20,WNW,292,0.0,0.0,96,0.00,FEW,FEW,0.00,25.0,WeatherDisplay:10.37,2013-05-28 09:52:00,
2013-05-28 05:57:00,34.0,33.0,30.20,WNW,292,0.0,0.0,96,0.00,FEW,FEW,0.00,26.0,WeatherDisplay:10.37,2013-05-28 09:57:00,
2013-05-28 06:07:00,34.4,33.4,30.21,WNW,292,0.0,0.0,96,0.00,CLR,FEW,0.00,37.0,WeatherDisplay:10.37,2013-05-28 10:07:00,
2013-05-28 06:17:00,34.7,33.7,30.21,WNW,292,0.0,0.0,96,0.00,CLR,FEW,0.00,35.0,WeatherDisplay:10.37,2013-05-28 10:17:00,
2013-05-28 06:22:00,34.9,34.1,30.21,WNW,292,0.0,0.0,97,0.00,CLR,FEW,0.00,35.0,WeatherDisplay:10.37,2013-05-28 10:22:00,
2013-05-28 06:27:00,35.1,34.3,30.21,WNW,292,0.0,0.0,97,0.00,CLR,FEW,0.00,35.0,WeatherDisplay:10.37,2013-05-28 10:27:00,
2013-05-28 06:32:00,35.2,34.2,30.21,WNW,292,0.0,0.0,96,0.00,CLR,FEW,0.00,37.0,WeatherDisplay:10.37,2013-05-28 10:32:00,
2013-05-28 06:37:00,35.3,34.3,30.21,WNW,292,0.0,0.0,96,0.00,CLR,FEW,0.00,51.0,WeatherDisplay:10.37,2013-05-28 10:37:00,
2013-05-28 06:42:00,35.6,34.9,30.21,WNW,292,0.0,0.0,97,0.00,CLR,FEW,0.00,63.0,WeatherDisplay:10.37,2013-05-28 10:42:00,
2013-05-28 06:47:00,36.0,35.2,30.21,WNW,292,0.0,0.0,97,0.00,CLR,FEW,0.00,97.0,WeatherDisplay:10.37,2013-05-28 10:47:00,
2013-05-28 06:52:00,36.4,35.7,30.21,WNW,292,0.0,0.0,97,0.00,CLR,FEW,0.00,206.0,WeatherDisplay:10.37,2013-05-28 10:52:00,
2013-05-28 06:57:00,37.2,36.4,30.21,WNW,292,0.0,0.0,97,0.00,CLR,FEW,0.00,218.0,WeatherDisplay:10.37,2013-05-28 10:57:00,
2013-05-28 07:07:00,39.1,38.3,30.21,WNW,292,0.0,0.0,97,0.00,CLR,FEW,0.00,248.0,WeatherDisplay:10.37,2013-05-28 11:07:00,
2013-05-28 07:17:00,40.8,39.3,30.21,WNW,292,0.0,0.0,94,0.00,CLR,FEW,0.00,278.0,WeatherDisplay:10.37,2013-05-28 11:17:00,
2013-05-28 07:22:00,41.6,39.8,30.22,WNW,292,0.0,0.0,93,0.00,CLR,FEW,0.00,295.0,WeatherDisplay:10.37,2013-05-28 11:22:00,
2013-05-28 07:27:00,42.6,40.1,30.22,WNW,292,0.0,1.0,91,0.00,CLR,FEW,0.00,311.0,WeatherDisplay:10.37,2013-05-28 11:27:00,
2013-05-28 07:32:00,43.4,40.3,30.22,WNW,292,0.0,1.0,89,0.00,CLR,FEW,0.00,325.0,WeatherDisplay:10.37,2013-05-28 11:32:00,
2013-05-28 07:37:00,44.0,40.0,30.22,WNW,285,0.0,1.0,86,0.00,CLR,FEW,0.00,343.0,WeatherDisplay:10.37,2013-05-28 11:37:00,
2013-05-28 07:42:00,44.7,40.2,30.22,West,277,0.0,0.0,84,0.00,CLR,FEW,0.00,362.0,WeatherDisplay:10.37,2013-05-28 11:42:00,
2013-05-28 07:47:00,45.9,40.1,30.22,West,276,0.0,1.0,80,0.00,CLR,FEW,0.00,385.0,WeatherDisplay:10.37,2013-05-28 11:47:00,
2013-05-28 07:52:00,47.0,41.5,30.22,WSW,240,0.0,2.0,81,0.00,CLR,FEW,0.00,408.0,WeatherDisplay:10.37,2013-05-28 11:52:00,
2013-05-28 07:57:00,47.5,41.6,30.22,SW,222,0.0,1.0,80,0.00,CLR,FEW,0.00,427.0,WeatherDisplay:10.37,2013-05-28 11:57:00,
2013-05-28 08:07:00,47.8,39.6,30.22,SW,214,0.0,2.0,73,0.00,CLR,FEW,0.00,461.0,WeatherDisplay:10.37,2013-05-28 12:07:00,
2013-05-28 08:17:00,48.5,40.2,30.22,SSW,204,0.0,2.0,73,0.00,CLR,FEW,0.00,494.0,WeatherDisplay:10.37,2013-05-28 12:17:00,
2013-05-28 08:22:00,49.1,39.0,30.22,South,189,0.0,2.0,68,0.00,CLR,FEW,0.00,512.0,WeatherDisplay:10.37,2013-05-28 12:22:00,
2013-05-28 08:27:00,49.9,38.6,30.22,SSE,163,1.0,3.0,65,0.00,CLR,FEW,0.00,527.0,WeatherDisplay:10.37,2013-05-28 12:27:00,
2013-05-28 08:32:00,50.3,40.1,30.22,SSE,157,1.0,3.0,68,0.00,CLR,FEW,0.00,543.0,WeatherDisplay:10.37,2013-05-28 12:32:00,
2013-05-28 08:37:00,50.5,39.6,30.22,SSE,157,1.0,3.0,66,0.00,CLR,FEW,0.00,557.0,WeatherDisplay:10.37,2013-05-28 12:37:00,
2013-05-28 08:42:00,50.9,39.5,30.22,SSE,161,1.0,4.0,65,0.00,CLR,FEW,0.00,575.0,WeatherDisplay:10.37,2013-05-28 12:42:00,
2013-05-28 08:47:00,51.2,39.5,30.21,SSE,159,1.0,4.0,64,0.00,CLR,FEW,0.00,592.0,WeatherDisplay:10.37,2013-05-28 12:47:00,
2013-05-28 08:52:00,51.4,39.2,30.21,SSE,154,1.0,5.0,63,0.00,CLR,FEW,0.00,608.0,WeatherDisplay:10.37,2013-05-28 12:52:00,
2013-05-28 08:57:00,52.1,40.3,30.21,SE,146,1.0,4.0,64,0.00,CLR,FEW,0.00,624.0,WeatherDisplay:10.37,2013-05-28 12:57:00,
2013-05-28 09:07:00,53.1,39.6,30.21,South,181,1.0,6.0,60,0.00,CLR,FEW,0.00,656.0,WeatherDisplay:10.37,2013-05-28 13:07:00,
2013-05-28 09:17:00,54.1,38.8,30.21,South,179,1.0,5.0,56,0.00,CLR,FEW,0.00,682.0,WeatherDisplay:10.37,2013-05-28 13:17:00,
2013-05-28 09:22:00,54.1,37.8,30.21,South,177,1.0,4.0,54,0.00,CLR,FEW,0.00,700.0,WeatherDisplay:10.37,2013-05-28 13:22:00,
2013-05-28 09:27:00,54.5,38.7,30.21,South,189,2.0,6.0,55,0.00,CLR,FEW,0.00,715.0,WeatherDisplay:10.37,2013-05-28 13:27:00,
2013-05-28 09:32:00,55.1,37.8,30.21,SSW,201,2.0,5.0,52,0.00,CLR,FEW,0.00,729.0,WeatherDisplay:10.37,2013-05-28 13:32:00,
2013-05-28 09:37:00,56.0,39.6,30.21,SW,217,1.0,5.0,54,0.00,CLR,FEW,0.00,744.0,WeatherDisplay:10.37,2013-05-28 13:37:00,
2013-05-28 09:42:00,56.3,38.4,30.21,SSW,207,1.0,6.0,51,0.00,CLR,FEW,0.00,759.0,WeatherDisplay:10.37,2013-05-28 13:42:00,
2013-05-28 09:47:00,56.5,38.6,30.20,South,185,1.0,3.0,51,0.00,CLR,FEW,0.00,772.0,WeatherDisplay:10.37,2013-05-28 13:47:00,
2013-05-28 09:52:00,56.7,37.7,30.20,South,177,2.0,5.0,49,0.00,CLR,FEW,0.00,782.0,WeatherDisplay:10.37,2013-05-28 13:52:00,
2013-05-28 09:57:00,56.8,38.3,30.20,South,169,1.0,4.0,50,0.00,CLR,FEW,0.00,796.0,WeatherDisplay:10.37,2013-05-28 13:57:00,
2013-05-28 10:07:00,56.9,38.0,30.20,SE,139,2.0,5.0,49,0.00,CLR,FEW,0.00,823.0,WeatherDisplay:10.37,2013-05-28 14:07:00,
2013-05-28 10:17:00,57.4,37.9,30.20,SSE,147,2.0,6.0,48,0.00,CLR,FEW,0.00,847.0,WeatherDisplay:10.37,2013-05-28 14:17:00,
2013-05-28 10:22:00,57.3,38.3,30.20,SE,146,1.0,4.0,49,0.00,CLR,FEW,0.00,858.0,WeatherDisplay:10.37,2013-05-28 14:22:00,
2013-05-28 10:27:00,58.1,41.0,30.21,SSE,152,1.0,3.0,53,0.00,CLR,FEW,0.00,870.0,WeatherDisplay:10.37,2013-05-28 14:27:00,
2013-05-28 10:32:00,58.5,36.6,30.21,South,179,3.0,5.0,44,0.00,CLR,FEW,0.00,882.0,WeatherDisplay:10.37,2013-05-28 14:32:00,
2013-05-28 10:37:00,58.4,37.1,30.21,South,189,3.0,5.0,45,0.00,CLR,FEW,0.00,893.0,WeatherDisplay:10.37,2013-05-28 14:37:00,
2013-05-28 10:42:00,58.8,36.3,30.21,South,183,2.0,5.0,43,0.00,CLR,FEW,0.00,905.0,WeatherDisplay:10.37,2013-05-28 14:42:00,
2013-05-28 10:47:00,59.1,35.4,30.21,South,179,2.0,6.0,41,0.00,CLR,FEW,0.00,914.0,WeatherDisplay:10.37,2013-05-28 14:47:00,
2013-05-28 10:52:00,59.3,35.6,30.21,South,174,0.0,4.0,41,0.00,CLR,FEW,0.00,923.0,WeatherDisplay:10.37,2013-05-28 14:52:00,
2013-05-28 10:57:00,60.0,34.3,30.21,SSW,207,2.0,5.0,38,0.00,CLR,FEW,0.00,935.0,WeatherDisplay:10.37,2013-05-28 14:57:00,
2013-05-28 11:07:00,60.2,37.0,30.21,SSE,161,3.0,7.0,42,0.00,CLR,FEW,0.00,949.0,WeatherDisplay:10.37,2013-05-28 15:07:00,
2013-05-28 11:17:00,60.3,35.9,30.20,SE,138,2.0,6.0,40,0.00,CLR,FEW,0.00,967.0,WeatherDisplay:10.37,2013-05-28 15:17:00,
2013-05-28 11:22:00,61.0,36.5,30.20,SE,141,3.0,6.0,40,0.00,CLR,FEW,0.00,974.0,WeatherDisplay:10.37,2013-05-28 15:22:00,
2013-05-28 11:27:00,61.1,35.9,30.20,South,179,2.0,6.0,39,0.00,CLR,FEW,0.00,984.0,WeatherDisplay:10.37,2013-05-28 15:27:00,
2013-05-28 11:32:00,61.2,37.3,30.20,South,188,1.0,5.0,41,0.00,CLR,FEW,0.00,991.0,WeatherDisplay:10.37,2013-05-28 15:32:00,
2013-05-28 11:37:00,61.5,36.3,30.20,SW,215,3.0,7.0,39,0.00,CLR,FEW,0.00,993.0,WeatherDisplay:10.37,2013-05-28 15:37:00,
2013-05-28 11:42:00,61.5,36.3,30.20,SSW,209,2.0,5.0,39,0.00,CLR,FEW,0.00,1004.0,WeatherDisplay:10.37,2013-05-28 15:42:00,
2013-05-28 11:47:00,61.8,34.5,30.20,South,174,3.0,7.0,36,0.00,CLR,FEW,0.00,1009.0,WeatherDisplay:10.37,2013-05-28 15:47:00,
2013-05-28 11:52:00,62.1,33.4,30.20,South,174,2.0,5.0,34,0.00,CLR,FEW,0.00,1016.0,WeatherDisplay:10.37,2013-05-28 15:52:00,
2013-05-28 11:57:00,62.4,35.0,30.20,South,183,3.0,9.0,36,0.00,CLR,FEW,0.00,1020.0,WeatherDisplay:10.37,2013-05-28 15:57:00,
2013-05-28 12:07:00,62.1,33.4,30.20,SSE,147,0.0,6.0,34,0.00,CLR,FEW,0.00,1027.0,WeatherDisplay:10.37,2013-05-28 16:07:00,
2013-05-28 12:17:00,62.6,32.3,30.20,South,183,5.0,8.0,32,0.00,CLR,FEW,0.00,1034.0,WeatherDisplay:10.37,2013-05-28 16:17:00,
2013-05-28 12:22:00,62.6,33.8,30.19,South,171,0.0,2.0,34,0.00,CLR,FEW,0.00,1037.0,WeatherDisplay:10.37,2013-05-28 16:22:00,
2013-05-28 12:27:00,63.6,35.4,30.19,SSE,159,1.0,7.0,35,0.00,CLR,FEW,0.00,1039.0,WeatherDisplay:10.37,2013-05-28 16:27:00,
2013-05-28 12:32:00,63.9,36.4,30.19,SSE,157,1.0,3.0,36,0.00,CLR,FEW,0.00,1035.0,WeatherDisplay:10.37,2013-05-28 16:32:00,
2013-05-28 12:37:00,64.0,37.9,30.19,SSW,207,0.0,4.0,38,0.00,CLR,FEW,0.00,1034.0,WeatherDisplay:10.37,2013-05-28 16:37:00,
2013-05-28 12:42:00,64.6,37.0,30.18,SW,235,2.0,5.0,36,0.00,CLR,FEW,0.00,1046.0,WeatherDisplay:10.37,2013-05-28 16:42:00,
2013-05-28 12:47:00,63.8,35.6,30.18,South,178,6.0,13.0,35,0.00,CLR,FEW,0.00,946.0,WeatherDisplay:10.37,2013-05-28 16:47:00,
2013-05-28 12:52:00,63.1,35.7,30.18,South,182,2.0,9.0,36,0.00,CLR,FEW,0.00,1042.0,WeatherDisplay:10.37,2013-05-28 16:52:00,
2013-05-28 12:57:00,63.4,38.0,30.18,SSE,165,5.0,10.0,39,0.00,CLR,FEW,0.00,1042.0,WeatherDisplay:10.37,2013-05-28 16:57:00,
2013-05-28 13:07:00,63.6,36.1,30.18,South,173,3.0,10.0,36,0.00,CLR,FEW,0.00,1032.0,WeatherDisplay:10.37,2013-05-28 17:07:00,
2013-05-28 13:17:00,63.9,37.1,30.18,South,175,3.0,9.0,37,0.00,CLR,FEW,0.00,1034.0,WeatherDisplay:10.37,2013-05-28 17:17:00,
2013-05-28 13:22:00,64.1,38.6,30.18,SSE,164,1.0,6.0,39,0.00,CLR,FEW,0.00,1035.0,WeatherDisplay:10.37,2013-05-28 17:22:00,
2013-05-28 13:27:00,64.2,36.7,30.18,SSE,151,3.0,7.0,36,0.00,CLR,FEW,0.00,1039.0,WeatherDisplay:10.37,2013-05-28 17:27:00,
2013-05-28 13:32:00,64.0,37.9,30.18,SSE,153,2.0,7.0,38,0.00,CLR,FEW,0.00,1028.0,WeatherDisplay:10.37,2013-05-28 17:32:00,
2013-05-28 13:37:00,64.2,37.4,30.17,SE,139,3.0,5.0,37,0.00,CLR,FEW,0.00,1034.0,WeatherDisplay:10.37,2013-05-28 17:37:00,
2013-05-28 13:42:00,64.2,38.0,30.17,SE,130,2.0,7.0,38,0.00,CLR,FEW,0.00,1021.0,WeatherDisplay:10.37,2013-05-28 17:42:00,
2013-05-28 13:47:00,64.2,38.0,30.17,SSE,148,3.0,7.0,38,0.00,CLR,FEW,0.00,1016.0,WeatherDisplay:10.37,2013-05-28 17:47:00,
2013-05-28 13:52:00,63.9,37.1,30.17,SSE,153,5.0,7.0,37,0.00,CLR,FEW,0.00,1013.0,WeatherDisplay:10.37,2013-05-28 17:52:00,
2013-05-28 13:57:00,63.9,37.1,30.16,SE,136,3.0,7.0,37,0.00,CLR,FEW,0.00,1007.0,WeatherDisplay:10.37,2013-05-28 17:57:00,
2013-05-28 14:07:00,64.4,38.2,30.16,SE,136,3.0,7.0,38,0.00,CLR,FEW,0.00,993.0,WeatherDisplay:10.37,2013-05-28 18:07:00,
2013-05-28 14:17:00,65.1,38.9,30.16,SE,126,2.0,6.0,38,0.00,CLR,FEW,0.00,960.0,WeatherDisplay:10.37,2013-05-28 18:17:00,
2013-05-28 14:22:00,64.9,38.7,30.16,SE,142,5.0,9.0,38,0.00,CLR,FEW,0.00,958.0,WeatherDisplay:10.37,2013-05-28 18:22:00,
2013-05-28 14:27:00,64.8,37.9,30.16,South,175,2.0,5.0,37,0.00,CLR,FEW,0.00,840.0,WeatherDisplay:10.37,2013-05-28 18:27:00,
2013-05-28 14:32:00,65.0,38.0,30.16,South,183,1.0,13.0,37,0.00,CLR,FEW,0.00,824.0,WeatherDisplay:10.37,2013-05-28 18:32:00,
2013-05-28 14:37:00,65.1,37.5,30.16,South,179,3.0,9.0,36,0.00,CLR,FEW,0.00,867.0,WeatherDisplay:10.37,2013-05-28 18:37:00,
2013-05-28 14:42:00,65.1,37.5,30.15,SSE,154,5.0,9.0,36,0.00,CLR,FEW,0.00,835.0,WeatherDisplay:10.37,2013-05-28 18:42:00,
2013-05-28 14:47:00,65.0,36.7,30.15,SSE,153,3.0,6.0,35,0.00,CLR,FEW,0.00,798.0,WeatherDisplay:10.37,2013-05-28 18:47:00,
2013-05-28 14:52:00,65.0,37.4,30.15,SSE,147,5.0,8.0,36,0.00,CLR,FEW,0.00,842.0,WeatherDisplay:10.37,2013-05-28 18:52:00,
2013-05-28 14:57:00,65.1,38.2,30.15,SE,132,2.0,7.0,37,0.00,CLR,FEW,0.00,847.0,WeatherDisplay:10.37,2013-05-28 18:57:00,
2013-05-28 15:07:00,65.2,37.6,30.15,SSE,154,2.0,12.0,36,0.00,CLR,FEW,0.00,763.0,WeatherDisplay:10.37,2013-05-28 19:07:00,
2013-05-28 15:17:00,65.5,37.1,30.15,SSE,167,1.0,6.0,35,0.00,CLR,FEW,0.00,817.0,WeatherDisplay:10.37,2013-05-28 19:17:00,
2013-05-28 15:22:00,65.5,37.8,30.15,SSE,155,2.0,4.0,36,0.00,CLR,FEW,0.00,766.0,WeatherDisplay:10.37,2013-05-28 19:22:00,
2013-05-28 15:27:00,65.8,38.8,30.15,SE,134,2.0,6.0,37,0.00,CLR,FEW,0.00,770.0,WeatherDisplay:10.37,2013-05-28 19:27:00,
2013-05-28 15:32:00,65.9,38.9,30.14,SSE,155,1.0,10.0,37,0.00,CLR,FEW,0.00,694.0,WeatherDisplay:10.37,2013-05-28 19:32:00,
2013-05-28 15:37:00,66.2,37.0,30.15,SSE,152,1.0,9.0,34,0.00,CLR,FEW,0.00,737.0,WeatherDisplay:10.37,2013-05-28 19:37:00,
2013-05-28 15:42:00,66.1,36.9,30.14,SE,129,3.0,6.0,34,0.00,CLR,FEW,0.00,759.0,WeatherDisplay:10.37,2013-05-28 19:42:00,
2013-05-28 15:47:00,65.8,37.3,30.14,ESE,111,1.0,5.0,35,0.00,CLR,FEW,0.00,668.0,WeatherDisplay:10.37,2013-05-28 19:47:00,
2013-05-28 15:52:00,65.7,38.0,30.14,ESE,119,1.0,4.0,36,0.00,CLR,FEW,0.00,712.0,WeatherDisplay:10.37,2013-05-28 19:52:00,
2013-05-28 15:57:00,65.9,38.2,30.14,SSE,156,2.0,5.0,36,0.00,CLR,FEW,0.00,675.0,WeatherDisplay:10.37,2013-05-28 19:57:00,
2013-05-28 16:07:00,66.7,38.2,30.14,SSW,202,1.0,6.0,35,0.00,CLR,FEW,0.00,606.0,WeatherDisplay:10.37,2013-05-28 20:07:00,
2013-05-28 16:17:00,67.3,38.0,30.14,SSW,192,2.0,6.0,34,0.00,CLR,FEW,0.00,552.0,WeatherDisplay:10.37,2013-05-28 20:17:00,
2013-05-28 16:22:00,66.8,37.5,30.14,South,185,2.0,7.0,34,0.00,CLR,FEW,0.00,438.0,WeatherDisplay:10.37,2013-05-28 20:22:00,
2013-05-28 16:27:00,66.1,36.9,30.13,South,189,2.0,6.0,34,0.00,CLR,FEW,0.00,323.0,WeatherDisplay:10.37,2013-05-28 20:27:00,
2013-05-28 16:32:00,66.0,37.5,30.13,SSW,199,1.0,3.0,35,0.00,CLR,FEW,0.00,381.0,WeatherDisplay:10.37,2013-05-28 20:32:00,
2013-05-28 16:37:00,65.8,36.6,30.13,SSW,200,1.0,7.0,34,0.00,CLR,FEW,0.00,341.0,WeatherDisplay:10.37,2013-05-28 20:37:00,
2013-05-28 16:42:00,65.7,37.3,30.13,SSW,195,2.0,5.0,35,0.00,CLR,FEW,0.00,573.0,WeatherDisplay:10.37,2013-05-28 20:42:00,
2013-05-28 16:47:00,65.6,37.9,30.13,South,186,1.0,6.0,36,0.00,CLR,FEW,0.00,555.0,WeatherDisplay:10.37,2013-05-28 20:47:00,
2013-05-28 16:52:00,65.7,36.5,30.13,South,185,0.0,4.0,34,0.00,CLR,FEW,0.00,424.0,WeatherDisplay:10.37,2013-05-28 20:52:00,
2013-05-28 16:57:00,65.8,37.4,30.13,SW,224,2.0,6.0,35,0.00,CLR,FEW,0.00,241.0,WeatherDisplay:10.37,2013-05-28 20:57:00,
2013-05-28 17:07:00,65.5,39.2,30.13,WSW,251,1.0,4.0,38,0.00,CLR,FEW,0.00,417.0,WeatherDisplay:10.37,2013-05-28 21:07:00,
2013-05-28 17:17:00,65.5,39.2,30.13,South,177,0.0,3.0,38,0.00,CLR,FEW,0.00,278.0,WeatherDisplay:10.37,2013-05-28 21:17:00,
2013-05-28 17:22:00,65.7,38.7,30.12,South,184,0.0,2.0,37,0.00,CLR,FEW,0.00,207.0,WeatherDisplay:10.37,2013-05-28 21:22:00,
2013-05-28 17:27:00,65.4,39.1,30.12,South,185,1.0,3.0,38,0.00,CLR,FEW,0.00,306.0,WeatherDisplay:10.37,2013-05-28 21:27:00,
2013-05-28 17:32:00,65.3,37.6,30.12,South,186,0.0,2.0,36,0.00,CLR,FEW,0.00,383.0,WeatherDisplay:10.37,2013-05-28 21:32:00,
2013-05-28 17:37:00,65.5,38.5,30.12,South,190,1.0,4.0,37,0.00,CLR,FEW,0.00,345.0,WeatherDisplay:10.37,2013-05-28 21:37:00,
2013-05-28 17:42:00,65.4,38.4,30.12,SSW,197,2.0,6.0,37,0.00,CLR,FEW,0.00,323.0,WeatherDisplay:10.37,2013-05-28 21:42:00,
2013-05-28 17:47:00,65.4,38.4,30.12,SSW,200,1.0,5.0,37,0.00,CLR,FEW,0.00,352.0,WeatherDisplay:10.37,2013-05-28 21:47:00,
2013-05-28 17:52:00,65.3,37.6,30.12,SSW,203,2.0,5.0,36,0.00,CLR,FEW,0.00,295.0,WeatherDisplay:10.37,2013-05-28 21:52:00,
2013-05-28 17:57:00,65.2,38.9,30.12,SSW,193,0.0,2.0,38,0.00,CLR,FEW,0.00,146.0,WeatherDisplay:10.37,2013-05-28 21:57:00,
2013-05-28 18:07:00,65.0,37.4,30.12,South,176,1.0,3.0,36,0.00,CLR,FEW,0.00,148.0,WeatherDisplay:10.37,2013-05-28 22:07:00,
2013-05-28 18:17:00,64.7,38.5,30.12,South,176,0.0,3.0,38,0.00,CLR,FEW,0.00,125.0,WeatherDisplay:10.37,2013-05-28 22:17:00,
2013-05-28 18:22:00,64.6,38.4,30.12,South,176,1.0,3.0,38,0.00,CLR,FEW,0.00,130.0,WeatherDisplay:10.37,2013-05-28 22:22:00,
2013-05-28 18:27:00,64.4,37.5,30.11,South,176,0.0,3.0,37,0.00,CLR,FEW,0.00,123.0,WeatherDisplay:10.37,2013-05-28 22:27:00,
2013-05-28 18:32:00,64.3,38.1,30.11,South,178,0.0,1.0,38,0.00,CLR,FEW,0.00,116.0,WeatherDisplay:10.37,2013-05-28 22:32:00,
2013-05-28 18:37:00,64.3,37.5,30.11,South,178,0.0,3.0,37,0.00,CLR,FEW,0.00,100.0,WeatherDisplay:10.37,2013-05-28 22:37:00,
2013-05-28 18:42:00,64.3,38.8,30.11,South,177,0.0,1.0,39,0.00,CLR,FEW,0.00,90.0,WeatherDisplay:10.37,2013-05-28 22:42:00,
2013-05-28 18:47:00,64.2,37.4,30.11,South,180,0.0,1.0,37,0.00,CLR,FEW,0.00,84.0,WeatherDisplay:10.37,2013-05-28 22:47:00,
2013-05-28 18:52:00,64.1,37.3,30.11,South,180,0.0,1.0,37,0.00,CLR,FEW,0.00,83.0,WeatherDisplay:10.37,2013-05-28 22:52:00,
2013-05-28 18:57:00,64.0,37.2,30.11,South,180,0.0,1.0,37,0.00,CLR,FEW,0.00,79.0,WeatherDisplay:10.37,2013-05-28 22:57:00,
2013-05-28 19:07:00,63.7,37.6,30.11,South,180,0.0,1.0,38,0.00,CLR,FEW,0.00,62.0,WeatherDisplay:10.37,2013-05-28 23:07:00,
2013-05-28 19:17:00,63.1,37.7,30.11,South,180,0.0,1.0,39,0.00,CLR,FEW,0.00,49.0,WeatherDisplay:10.37,2013-05-28 23:17:00,
2013-05-28 19:22:00,62.7,38.6,30.12,South,180,0.0,0.0,41,0.00,CLR,FEW,0.00,47.0,WeatherDisplay:10.37,2013-05-28 23:22:00,
2013-05-28 19:27:00,62.2,36.9,30.12,South,180,0.0,0.0,39,0.00,CLR,FEW,0.00,42.0,WeatherDisplay:10.37,2013-05-28 23:27:00,
2013-05-28 19:32:00,61.9,37.3,30.12,South,180,0.0,0.0,40,0.00,CLR,FEW,0.00,39.0,WeatherDisplay:10.37,2013-05-28 23:32:00,
2013-05-28 19:37:00,61.7,37.7,30.12,South,181,0.0,2.0,41,0.00,CLR,FEW,0.00,32.0,WeatherDisplay:10.37,2013-05-28 23:37:00,
2013-05-28 19:42:00,61.5,38.1,30.12,South,182,0.0,1.0,42,0.00,CLR,FEW,0.00,25.0,WeatherDisplay:10.37,2013-05-28 23:42:00,
2013-05-28 19:47:00,61.2,38.0,30.12,South,182,0.0,1.0,42,0.00,CLR,FEW,0.00,19.0,WeatherDisplay:10.37,2013-05-28 23:47:00,
2013-05-28 19:52:00,60.9,38.8,30.11,South,182,0.0,0.0,44,0.00,CLR,FEW,0.00,16.0,WeatherDisplay:10.37,2013-05-28 23:52:00,
2013-05-28 19:57:00,60.4,38.4,30.11,South,182,0.0,0.0,44,0.00,CLR,FEW,0.00,11.0,WeatherDisplay:10.37,2013-05-28 23:57:00,
2013-05-28 20:07:00,59.9,38.5,30.12,South,184,0.0,0.0,45,0.00,CLR,FEW,0.00,5.0,WeatherDisplay:10.37,2013-05-29 00:07:00,
2013-05-28 20:17:00,59.4,38.6,30.12,South,184,0.0,0.0,46,0.00,CLR,FEW,0.00,0.0,WeatherDisplay:10.37,2013-05-29 00:17:00,
2013-05-28 20:22:00,59.2,38.4,30.11,South,184,0.0,0.0,46,0.00,CLR,FEW,0.00,0.0,WeatherDisplay:10.37,2013-05-29 00:22:00,
2013-05-28 20:27:00,59.0,38.8,30.11,South,185,0.0,1.0,47,0.00,CLR,FEW,0.00,0.0,WeatherDisplay:10.37,2013-05-29 00:27:00,
2013-05-28 20:32:00,58.6,38.4,30.11,South,185,0.0,1.0,47,0.00,CLR,FEW,0.00,0.0,WeatherDisplay:10.37,2013-05-29 00:32:00,
2013-05-28 20:37:00,58.3,38.1,30.11,South,185,0.0,1.0,47,0.00,CLR,FEW,0.00,0.0,WeatherDisplay:10.37,2013-05-29 00:37:00,
2013-05-28 20:42:00,58.3,38.6,30.12,South,185,0.0,1.0,48,0.00,CLR,FEW,0.00,0.0,WeatherDisplay:10.37,2013-05-29 00:42:00,
2013-05-28 20:47:00,58.0,40.0,30.12,South,185,0.0,1.0,51,0.00,CLR,FEW,0.00,0.0,WeatherDisplay:10.37,2013-05-29 00:47:00,
2013-05-28 20:52:00,57.2,39.7,30.12,South,185,0.0,0.0,52,0.00,CLR,FEW,0.00,0.0,WeatherDisplay:10.37,2013-05-29 00:52:00,
2013-05-28 20:57:00,56.5,40.0,30.13,South,185,0.0,2.0,54,0.00,CLR,FEW,0.00,0.0,WeatherDisplay:10.37,2013-05-29 00:57:00,
2013-05-28 21:07:00,55.6,40.1,30.13,South,187,0.0,2.0,56,0.00,CLR,FEW,0.00,0.0,WeatherDisplay:10.37,2013-05-29 01:07:00,
2013-05-28 21:17:00,55.5,40.0,30.13,South,187,0.0,1.0,56,0.00,CLR,FEW,0.00,0.0,WeatherDisplay:10.37,2013-05-29 01:17:00,
2013-05-28 21:22:00,55.6,40.1,30.13,South,187,0.0,1.0,56,0.00,CLR,FEW,0.00,0.0,WeatherDisplay:10.37,2013-05-29 01:22:00,
2013-05-28 21:27:00,55.4,40.4,30.13,South,187,0.0,0.0,57,0.00,CLR,FEW,0.00,0.0,WeatherDisplay:10.37,2013-05-29 01:27:00,
2013-05-28 21:32:00,55.2,40.2,30.13,South,187,0.0,0.0,57,0.00,CLR,FEW,0.00,0.0,WeatherDisplay:10.37,2013-05-29 01:32:00,
2013-05-28 21:37:00,55.0,40.5,30.13,South,187,0.0,1.0,58,0.00,CLR,FEW,0.00,0.0,WeatherDisplay:10.37,2013-05-29 01:37:00,
2013-05-28 21:42:00,54.8,40.3,30.13,South,187,0.0,1.0,58,0.00,CLR,FEW,0.00,0.0,WeatherDisplay:10.37,2013-05-29 01:42:00,
2013-05-28 21:47:00,54.8,40.3,30.13,South,187,0.0,2.0,58,0.00,CLR,FEW,0.00,0.0,WeatherDisplay:10.37,2013-05-29 01:47:00,
2013-05-28 21:52:00,54.9,39.9,30.13,South,187,0.0,1.0,57,0.00,CLR,FEW,0.00,0.0,WeatherDisplay:10.37,2013-05-29 01:52:00,
2013-05-28 21:57:00,54.9,40.4,30.13,South,187,0.0,0.0,58,0.00,CLR,FEW,0.00,0.0,WeatherDisplay:10.37,2013-05-29 01:57:00,
2013-05-28 22:07:00,54.8,40.3,30.13,South,183,0.0,2.0,58,0.00,CLR,FEW,0.00,0.0,WeatherDisplay:10.37,2013-05-29 02:07:00,
2013-05-28 22:17:00,54.4,40.3,30.13,South,172,1.0,4.0,59,0.00,CLR,FEW,0.00,0.0,WeatherDisplay:10.37,2013-05-29 02:17:00,
2013-05-28 22:22:00,54.2,40.6,30.12,ESE,115,2.0,4.0,60,0.00,CLR,FEW,0.00,0.0,WeatherDisplay:10.37,2013-05-29 02:22:00,
2013-05-28 22:27:00,54.2,40.6,30.13,ESE,106,0.0,2.0,60,0.00,CLR,FEW,0.00,0.0,WeatherDisplay:10.37,2013-05-29 02:27:00,
2013-05-28 22:32:00,54.1,40.5,30.13,ESE,106,0.0,2.0,60,0.00,CLR,FEW,0.00,0.0,WeatherDisplay:10.37,2013-05-29 02:32:00,
2013-05-28 22:37:00,53.9,40.3,30.13,ESE,106,1.0,3.0,60,0.00,CLR,FEW,0.00,0.0,WeatherDisplay:10.37,2013-05-29 02:37:00,
2013-05-28 22:42:00,53.9,40.8,30.13,ESE,108,0.0,5.0,61,0.00,CLR,FEW,0.00,0.0,WeatherDisplay:10.37,2013-05-29 02:42:00,
2013-05-28 22:47:00,54.0,40.4,30.13,SE,124,0.0,3.0,60,0.00,CLR,FEW,0.00,0.0,WeatherDisplay:10.37,2013-05-29 02:47:00,
2013-05-28 22:52:00,53.8,40.7,30.13,SE,142,0.0,1.0,61,0.00,CLR,FEW,0.00,0.0,WeatherDisplay:10.37,2013-05-29 02:52:00,
2013-05-28 22:57:00,53.6,40.0,30.13,SE,140,0.0,3.0,60,0.00,CLR,FEW,0.00,0.0,WeatherDisplay:10.37,2013-05-29 02:57:00,
2013-05-28 23:07:00,53.2,39.7,30.13,SE,132,0.0,1.0,60,0.00,CLR,FEW,0.00,0.0,WeatherDisplay:10.37,2013-05-29 03:07:00,
2013-05-28 23:17:00,53.1,40.0,30.13,SE,129,0.0,1.0,61,0.00,CLR,FEW,0.00,0.0,WeatherDisplay:10.37,2013-05-29 03:17:00,
2013-05-28 23:22:00,52.9,39.8,30.13,SE,129,0.0,1.0,61,0.00,CLR,FEW,0.00,0.0,WeatherDisplay:10.37,2013-05-29 03:22:00,
2013-05-28 23:27:00,52.8,39.7,30.13,SE,129,0.0,1.0,61,0.00,CLR,FEW,0.00,0.0,WeatherDisplay:10.37,2013-05-29 03:27:00,
2013-05-28 23:32:00,52.7,39.6,30.13,SE,129,0.0,2.0,61,0.00,CLR,FEW,0.00,0.0,WeatherDisplay:10.37,2013-05-29 03:32:00,
2013-05-28 23:37:00,52.6,39.5,30.13,SE,129,0.0,1.0,61,0.00,CLR,FEW,0.00,0.0,WeatherDisplay:10.37,2013-05-29 03:37:00,
2013-05-28 23:42:00,52.7,39.6,30.13,SE,129,0.0,1.0,61,0.00,CLR,FEW,0.00,0.0,WeatherDisplay:10.37,2013-05-29 03:42:00,
2013-05-28 23:47:00,52.6,39.6,30.13,SE,129,0.0,0.0,61,0.00,CLR,FEW,0.00,0.0,WeatherDisplay:10.37,2013-05-29 03:47:00,
2013-05-28 23:52:00,52.6,39.5,30.13,SE,129,0.0,1.0,61,0.00,CLR,FEW,0.00,0.0,WeatherDisplay:10.37,2013-05-29 03:52:00,
2013-05-28 23:57:00,52.5,39.4,30.13,SE,129,0.0,1.0,61,0.00,CLR,FEW,0.00,0.0,WeatherDisplay:10.37,2013-05-29 03:57:00,